Time;durP1;ratioP1;P1;durP2;ratioP2;P2;SDS_P1;SDS_P2;PMS_P1;PMS_P2;Temp;Humidity;BMP_temperature;BMP_pressure;BME280_temperature;BME280_humidity;BME280_pressure;Samples;Min_cycle;Max_cycle;Signal;HPM_P1;HPM_P2
2023/03/23 00:04:21;;;;;;;7.45;4.70;;;;;;;4.44;97.55;99242.13;10474866;28;20496;-79
2023/03/23 00:09:23;;;;;;;7.63;3.97;;;;;;;4.46;96.65;99226.38;10438171;28;20049;-79
2023/03/23 00:14:25;;;;;;;9.20;4.80;;;;;;;4.56;96.88;99217.41;10443815;28;20041;-78
2023/03/23 00:19:28;;;;;;;10.68;5.05;;;;;;;4.56;96.76;99219.31;10452456;28;20049;-78
2023/03/23 00:24:30;;;;;;;6.78;3.83;;;;;;;4.58;97.07;99219.84;10469155;28;20041;-79
2023/03/23 00:29:32;;;;;;;9.20;4.53;;;;;;;4.61;96.32;99197.53;10450463;28;20401;-78
2023/03/23 00:34:35;;;;;;;7.80;4.15;;;;;;;4.63;96.63;99184.50;10435699;28;20359;-78
2023/03/23 00:39:38;;;;;;;10.30;4.70;;;;;;;4.65;96.85;99193.97;10450075;28;20441;-78
2023/03/23 00:44:40;;;;;;;7.72;4.55;;;;;;;4.66;96.40;99170.34;10447717;28;20131;-78
2023/03/23 00:49:43;;;;;;;7.63;4.07;;;;;;;4.67;96.88;99180.13;10450990;28;20044;-79
2023/03/23 00:54:45;;;;;;;7.15;4.03;;;;;;;4.69;96.59;99156.22;10420037;28;20049;-78
2023/03/23 00:59:47;;;;;;;5.20;2.97;;;;;;;4.66;96.58;99159.47;10451770;28;20041;-78
2023/03/23 01:04:52;;;;;;;4.80;3.50;;;;;;;4.69;96.39;99145.38;10457422;28;20052;-78
2023/03/23 01:09:54;;;;;;;9.60;4.13;;;;;;;4.69;96.21;99150.78;10477681;28;20504;-78
2023/03/23 01:14:56;;;;;;;5.25;2.92;;;;;;;4.69;96.20;99115.47;10458116;28;20057;-78
2023/03/23 01:19:59;;;;;;;3.75;3.00;;;;;;;4.75;96.85;99109.72;10446899;28;20041;-79
2023/03/23 01:25:06;;;;;;;3.72;2.33;;;;;;;4.84;96.21;99099.88;10465386;28;20412;-79
2023/03/23 01:30:11;;;;;;;3.97;2.35;;;;;;;4.81;96.36;99096.91;10440507;28;20041;-79
2023/03/23 01:35:14;;;;;;;2.55;2.03;;;;;;;4.83;95.93;99092.00;10428858;28;20036;-79
2023/03/23 01:40:17;;;;;;;3.85;2.58;;;;;;;4.83;96.14;99092.00;10456425;28;20059;-79
2023/03/23 01:45:23;;;;;;;5.47;3.67;;;;;;;4.91;95.48;99079.75;10425591;28;20077;-79
2023/03/23 01:50:35;;;;;;;4.35;2.83;;;;;;;4.89;95.64;99080.03;10448370;28;20532;-78
2023/03/23 01:55:40;;;;;;;5.75;3.55;;;;;;;4.89;95.49;99061.00;10448235;28;20045;-78
2023/03/23 02:00:43;;;;;;;4.15;2.63;;;;;;;4.96;95.47;99063.38;10444272;28;20076;-78
2023/03/23 02:05:50;;;;;;;3.08;2.35;;;;;;;5.01;95.27;99053.28;10444749;28;20046;-78
2023/03/23 02:11:01;;;;;;;3.38;2.38;;;;;;;4.93;96.29;99037.59;10450090;28;20045;-78
2023/03/23 02:16:17;;;;;;;6.93;2.70;;;;;;;4.83;96.01;99029.50;10471567;28;20049;-78
2023/03/23 02:21:21;;;;;;;5.07;3.10;;;;;;;4.79;97.54;99034.69;10468300;28;20032;-78
2023/03/23 02:26:28;;;;;;;4.75;3.38;;;;;;;4.84;97.94;99014.81;10468621;28;20393;-78
2023/03/23 02:31:54;;;;;;;5.43;3.22;;;;;;;4.78;98.03;99003.19;10446432;28;20489;-78
2023/03/23 02:37:26;;;;;;;2.87;2.00;;;;;;;4.80;98.42;98992.84;10462998;28;20389;-78
2023/03/23 02:42:32;;;;;;;5.13;2.92;;;;;;;4.80;98.30;98984.69;10426709;28;20048;-79
2023/03/23 02:47:36;;;;;;;4.72;2.60;;;;;;;4.87;98.43;98978.13;10424752;28;20048;-79
2023/03/23 02:52:40;;;;;;;3.97;2.80;;;;;;;4.90;98.96;98970.22;10453861;28;20041;-79
2023/03/23 02:58:15;;;;;;;2.75;2.20;;;;;;;4.86;98.12;98966.44;10435953;28;20072;-78
2023/03/23 03:03:43;;;;;;;3.75;2.63;;;;;;;4.89;98.80;98946.03;10454270;28;20421;-78
2023/03/23 03:09:02;;;;;;;3.90;2.60;;;;;;;4.92;98.46;98945.47;10442357;28;20413;-78
2023/03/23 03:14:10;;;;;;;5.90;2.75;;;;;;;4.96;98.52;98941.06;10462671;28;20513;-79
2023/03/23 03:19:25;;;;;;;4.25;2.70;;;;;;;4.93;98.79;98938.94;10434283;28;20045;-79
2023/03/23 03:24:29;;;;;;;3.95;2.55;;;;;;;4.97;98.66;98916.31;10430994;28;20412;-79
2023/03/23 03:29:41;;;;;;;5.20;2.17;;;;;;;5.01;98.75;98901.06;10468572;28;20044;-78
2023/03/23 03:35:09;;;;;;;2.30;1.45;;;;;;;4.98;98.28;98900.81;10427452;28;20057;-78
2023/03/23 03:40:15;;;;;;;2.85;2.45;;;;;;;5.01;98.07;98887.47;10432858;28;20052;-78
2023/03/23 03:45:21;;;;;;;2.50;1.90;;;;;;;5.01;98.02;98887.47;10435033;28;20441;-78
2023/03/23 03:50:28;;;;;;;2.90;1.70;;;;;;;5.01;98.17;98887.47;10437523;28;20042;-79
2023/03/23 03:55:35;;;;;;;2.00;1.35;;;;;;;5.09;98.03;98873.25;10415166;28;20052;-78
2023/03/23 04:00:47;;;;;;;2.53;1.60;;;;;;;5.11;97.50;98879.22;10426160;28;20084;-79
2023/03/23 04:05:59;;;;;;;2.30;1.55;;;;;;;5.15;97.81;98847.63;10428803;28;20084;-79
2023/03/23 04:11:05;;;;;;;1.95;1.35;;;;;;;5.15;97.94;98854.97;10467017;28;20084;-78
2023/03/23 04:16:08;;;;;;;1.60;1.35;;;;;;;5.18;98.29;98848.13;10440464;28;20037;-78
2023/03/23 04:21:16;;;;;;;2.00;1.20;;;;;;;5.22;97.81;98860.06;10442059;28;20048;-78
2023/03/23 04:26:21;;;;;;;1.92;1.40;;;;;;;5.20;98.01;98859.53;10448161;28;20045;-77
2023/03/23 04:31:26;;;;;;;3.15;1.13;;;;;;;5.17;98.39;98851.97;10448873;28;20524;-77
2023/03/23 04:36:46;;;;;;;1.55;1.05;;;;;;;5.15;98.36;98839.47;10410646;28;20050;-77
2023/03/23 04:41:53;;;;;;;3.80;1.65;;;;;;;5.21;98.33;98853.84;10441054;28;20072;-78
2023/03/23 04:47:22;;;;;;;1.60;1.02;;;;;;;5.26;98.30;98836.63;10424189;28;20049;-78
2023/03/23 04:52:31;;;;;;;1.65;1.40;;;;;;;5.23;98.67;98845.38;10436023;28;20046;-79
2023/03/23 04:57:35;;;;;;;1.33;1.10;;;;;;;5.19;98.91;98841.59;10448430;28;20045;-77
2023/03/23 05:02:55;;;;;;;3.00;1.70;;;;;;;5.28;99.38;98842.59;10436435;28;20456;-77
2023/03/23 05:08:01;;;;;;;4.10;2.05;;;;;;;5.23;99.27;98850.81;10442303;28;20504;-78
2023/03/23 05:13:07;;;;;;;1.27;0.95;;;;;;;5.25;99.86;98851.34;10435258;28;20037;-78
2023/03/23 05:18:10;;;;;;;1.27;0.88;;;;;;;5.22;100.00;98850.00;10428299;28;20455;-77
2023/03/23 05:23:14;;;;;;;1.88;1.15;;;;;;;5.19;100.00;98844.31;10425172;28;20044;-78
2023/03/23 05:28:18;;;;;;;3.90;1.65;;;;;;;5.14;100.00;98845.19;10439881;28;20448;-78
2023/03/23 05:33:28;;;;;;;2.90;1.73;;;;;;;5.13;100.00;98847.09;10398399;28;20331;-78
2023/03/23 05:38:36;;;;;;;2.38;1.35;;;;;;;5.18;100.00;98845.41;10447206;28;20049;-78
2023/03/23 05:43:39;;;;;;;1.20;1.10;;;;;;;5.09;100.00;98845.25;10446408;28;20452;-78
2023/03/23 05:48:53;;;;;;;1.60;1.30;;;;;;;5.16;100.00;98862.03;10432637;28;20041;-78
2023/03/23 05:53:58;;;;;;;3.47;2.42;;;;;;;5.19;100.00;98852.47;10446272;28;20033;-78
2023/03/23 05:59:02;;;;;;;0.77;0.68;;;;;;;5.18;100.00;98859.81;10445194;28;20045;-78
2023/03/23 06:04:06;;;;;;;2.63;1.85;;;;;;;5.21;100.00;98863.91;10446612;28;20052;-78
2023/03/23 06:09:31;;;;;;;2.67;1.23;;;;;;;5.23;100.00;98894.31;10416750;28;20084;-78
2023/03/23 06:14:52;;;;;;;1.17;1.08;;;;;;;5.26;100.00;98891.84;10447098;28;20041;-78
2023/03/23 06:20:00;;;;;;;2.58;1.23;;;;;;;5.24;100.00;98899.47;10398416;28;20053;-78
2023/03/23 06:25:06;;;;;;;0.77;0.73;;;;;;;5.29;100.00;98904.03;10445411;28;20524;-77
2023/03/23 06:30:15;;;;;;;2.45;1.35;;;;;;;5.40;100.00;98916.44;10428422;28;20041;-78
2023/03/23 06:35:19;;;;;;;1.35;0.93;;;;;;;5.45;100.00;98914.47;10443926;28;20041;-77
2023/03/23 06:40:31;;;;;;;2.40;1.35;;;;;;;5.54;100.00;98930.13;10446482;28;20501;-78
2023/03/23 06:45:33;;;;;;;1.42;0.75;;;;;;;5.64;100.00;98913.69;10444233;28;20041;-77
2023/03/23 06:50:55;;;;;;;1.45;0.98;;;;;;;5.73;100.00;98937.25;10444380;28;20489;-77
2023/03/23 06:56:05;;;;;;;1.95;0.90;;;;;;;5.74;100.00;98936.16;10444904;28;20042;-79
2023/03/23 07:01:11;;;;;;;1.27;1.02;;;;;;;5.82;100.00;98933.88;10444440;28;20049;-78
2023/03/23 07:06:22;;;;;;;1.17;0.88;;;;;;;5.95;100.00;98942.19;10443612;28;20040;-79
2023/03/23 07:11:31;;;;;;;2.45;1.00;;;;;;;6.22;99.52;98940.72;10428954;28;20053;-77
2023/03/23 07:16:38;;;;;;;1.38;0.85;;;;;;;6.37;98.27;98943.22;10439790;28;20045;-79
2023/03/23 07:21:41;;;;;;;0.88;0.88;;;;;;;6.59;96.15;98965.22;10443926;28;20048;-78
2023/03/23 07:26:44;;;;;;;1.08;1.02;;;;;;;6.88;94.67;98973.22;10427269;28;20049;-78
2023/03/23 07:31:46;;;;;;;1.40;1.20;;;;;;;6.99;93.34;98971.16;10444117;28;20037;-78
2023/03/23 07:36:50;;;;;;;1.33;0.98;;;;;;;7.64;90.52;98978.47;10439622;28;20034;-78
2023/03/23 07:41:53;;;;;;;1.40;1.30;;;;;;;7.54;88.50;98979.47;10443260;28;20128;-78
2023/03/23 08:52:41;;;;;;;2.10;1.20;;;;;;;8.07;76.87;98970.75;10463997;28;20568;-78
2023/03/23 08:57:52;;;;;;;1.52;1.15;;;;;;;8.38;75.90;98971.75;10462880;28;20055;-78
2023/03/23 09:03:17;;;;;;;2.13;1.10;;;;;;;8.53;74.16;98964.34;10463128;28;20053;-79
2023/03/23 09:09:00;;;;;;;3.00;1.08;;;;;;;8.71;72.76;98974.28;10460963;28;20426;-78
2023/03/23 09:14:27;;;;;;;2.33;1.10;;;;;;;8.19;73.22;98978.44;10462840;28;20056;-78
2023/03/23 09:19:31;;;;;;;3.72;1.58;;;;;;;8.02;74.75;98982.63;10453600;28;20051;-80
2023/03/23 09:24:33;;;;;;;1.20;1.10;;;;;;;8.22;74.67;98986.03;10460858;28;20045;-79
2023/03/23 09:29:36;;;;;;;2.58;1.33;;;;;;;8.30;74.67;98993.50;10462083;28;20041;-80
2023/03/23 09:34:42;;;;;;;1.50;1.07;;;;;;;8.19;73.98;98994.84;10460278;28;20049;-79
2023/03/23 09:39:45;;;;;;;1.45;1.00;;;;;;;8.13;72.97;98985.91;10461365;28;20404;-77
2023/03/23 09:45:33;;;;;;;1.17;1.02;;;;;;;8.03;73.43;99000.63;10460413;28;20055;-80
2023/03/23 09:50:37;;;;;;;2.13;1.02;;;;;;;8.07;73.18;98990.69;10454928;28;20099;-81
2023/03/23 09:55:39;;;;;;;1.52;1.23;;;;;;;8.00;72.76;98989.50;10445774;28;20053;-78
2023/03/23 10:00:47;;;;;;;2.72;0.75;;;;;;;8.10;72.95;98983.81;10444894;28;20529;-79
2023/03/23 10:05:51;;;;;;;1.98;1.23;;;;;;;8.37;72.74;98996.66;10391018;28;20041;-81
2023/03/23 10:11:13;;;;;;;1.50;1.10;;;;;;;8.36;71.23;98976.72;10406299;28;20046;-78
2023/03/23 10:16:20;;;;;;;2.78;1.80;;;;;;;8.51;71.04;98988.44;10406164;28;20556;-78
2023/03/23 10:21:29;;;;;;;1.55;1.17;;;;;;;8.45;70.94;98996.72;10434829;28;20049;-78
2023/03/23 10:26:57;;;;;;;2.70;1.75;;;;;;;8.52;70.58;98987.31;10447257;28;20461;-78
2023/03/23 10:32:04;;;;;;;2.90;1.67;;;;;;;8.67;70.48;98987.75;10427192;28;20052;-80
2023/03/23 10:37:18;;;;;;;2.45;1.67;;;;;;;8.67;70.37;98978.75;10429373;28;20056;-80
2023/03/23 10:42:26;;;;;;;2.05;1.50;;;;;;;8.54;69.89;98969.50;10446356;28;20045;-83
2023/03/23 10:47:28;;;;;;;1.85;1.50;;;;;;;8.59;70.37;98977.56;10444353;28;20527;-80
2023/03/23 10:52:39;;;;;;;3.13;2.00;;;;;;;8.52;69.99;98966.25;10445211;28;20057;-80
2023/03/23 10:57:44;;;;;;;1.40;1.30;;;;;;;8.61;69.70;98980.00;10445526;28;20052;-79
2023/03/23 11:03:21;;;;;;;2.13;1.17;;;;;;;8.63;69.32;98966.81;10445803;28;20046;-79
2023/03/23 11:08:32;;;;;;;1.40;1.13;;;;;;;8.69;68.68;98980.06;10459902;28;20049;-79
2023/03/23 11:13:39;;;;;;;3.30;1.42;;;;;;;8.71;68.80;98979.75;10443988;28;20049;-80
2023/03/23 11:18:42;;;;;;;2.03;1.65;;;;;;;8.74;69.15;98974.47;10436885;28;20046;-79
2023/03/23 11:23:53;;;;;;;2.28;1.23;;;;;;;8.68;69.09;98975.72;10439572;28;20046;-79
2023/03/23 11:28:58;;;;;;;2.53;1.20;;;;;;;8.66;67.91;98972.47;10456800;28;20051;-79
2023/03/23 11:34:03;;;;;;;2.15;1.38;;;;;;;8.65;67.80;98970.84;10461203;28;20363;-78
2023/03/23 11:39:22;;;;;;;1.45;1.10;;;;;;;8.62;67.08;98965.19;10431902;28;20052;-79
2023/03/23 11:44:39;;;;;;;3.42;1.23;;;;;;;8.52;67.47;98971.72;10452708;28;20049;-79
2023/03/23 11:49:55;;;;;;;1.40;1.10;;;;;;;8.47;67.56;98969.09;10429454;28;20054;-77
2023/03/23 11:55:10;;;;;;;1.13;0.88;;;;;;;8.44;67.37;98964.25;10411276;28;20048;-78
2023/03/23 12:00:19;;;;;;;2.42;1.30;;;;;;;8.60;67.29;98970.16;10459181;28;20045;-84
2023/03/23 12:05:33;;;;;;;1.77;0.63;;;;;;;8.65;66.87;98964.56;10427271;28;20049;-78
2023/03/23 12:11:05;;;;;;;3.10;1.13;;;;;;;8.69;66.89;98957.41;10454842;28;20523;-84
2023/03/23 12:16:19;;;;;;;1.27;0.90;;;;;;;8.81;66.14;98960.38;10457750;28;20055;-79
2023/03/23 12:21:34;;;;;;;2.20;1.23;;;;;;;8.76;65.57;98957.75;10444570;28;20037;-81
2023/03/23 12:27:04;;;;;;;2.72;0.98;;;;;;;8.79;65.51;98953.59;10443329;28;20044;-80
2023/03/23 12:32:35;;;;;;;2.90;1.00;;;;;;;8.79;64.51;98965.34;10474080;28;20045;-80
2023/03/23 12:37:48;;;;;;;0.90;0.85;;;;;;;8.74;63.96;98954.53;10432288;28;20043;-79
2023/03/23 12:43:21;;;;;;;2.03;0.90;;;;;;;8.69;63.65;98971.06;10443571;28;20049;-79
2023/03/23 12:48:31;;;;;;;2.72;0.70;;;;;;;8.66;63.76;98969.72;10431486;28;20041;-78
2023/03/23 12:54:02;;;;;;;2.15;0.90;;;;;;;8.62;64.07;98976.94;10445838;28;20394;-78
2023/03/23 12:59:27;;;;;;;1.85;1.08;;;;;;;8.65;63.62;98970.03;10457309;28;20063;-77
2023/03/23 13:04:38;;;;;;;1.63;1.10;;;;;;;8.58;64.20;98986.88;10451524;28;20053;-79
2023/03/23 13:09:54;;;;;;;3.58;1.23;;;;;;;8.64;64.03;98974.72;10449525;28;20057;-78
2023/03/23 13:15:24;;;;;;;1.10;1.00;;;;;;;8.61;64.09;98969.06;10450765;28;20038;-79
2023/03/23 13:20:57;;;;;;;1.20;1.00;;;;;;;8.72;63.54;98967.72;10449863;28;20420;-78
2023/03/23 13:26:07;;;;;;;3.85;1.35;;;;;;;8.62;63.40;98971.47;10450342;28;20417;-78
2023/03/23 13:31:36;;;;;;;1.52;1.00;;;;;;;8.59;63.29;98971.28;10448802;28;20029;-79
2023/03/23 13:36:43;;;;;;;0.75;0.57;;;;;;;8.54;62.65;98974.16;10438662;28;20057;-80
2023/03/23 13:42:08;;;;;;;1.90;0.93;;;;;;;8.50;63.17;98971.19;10457899;28;20057;-80
2023/03/23 13:47:23;;;;;;;1.95;1.02;;;;;;;8.52;63.34;98979.13;10453035;28;20431;-81
2023/03/23 13:52:43;;;;;;;3.72;1.15;;;;;;;8.66;62.85;98977.13;10446189;28;20053;-79
2023/03/23 13:58:02;;;;;;;2.17;1.05;;;;;;;8.66;62.89;98988.06;10449656;28;20037;-77
2023/03/23 14:03:11;;;;;;;1.58;1.10;;;;;;;8.64;62.95;98973.91;10436480;28;20033;-77
2023/03/23 14:08:21;;;;;;;2.05;0.98;;;;;;;8.58;63.06;98981.41;10416198;28;20399;-78
2023/03/23 14:13:25;;;;;;;1.63;1.00;;;;;;;8.61;63.94;98980.78;10404633;28;20045;-79
2023/03/23 14:18:39;;;;;;;2.88;1.50;;;;;;;8.71;63.60;98975.09;10427523;28;20128;-79
2023/03/23 14:23:43;;;;;;;2.80;1.60;;;;;;;8.70;64.05;98973.50;10429080;28;20049;-79
2023/03/23 14:28:55;;;;;;;2.17;1.10;;;;;;;8.58;63.60;98970.47;10404379;28;20041;-78
2023/03/23 14:34:03;;;;;;;1.20;1.00;;;;;;;8.47;63.66;98982.75;10408322;28;20495;-79
2023/03/23 14:39:11;;;;;;;2.63;0.90;;;;;;;8.36;64.25;98975.91;10387167;28;20050;-78
2023/03/23 14:44:21;;;;;;;1.48;0.90;;;;;;;8.29;65.28;98984.47;10402871;28;20451;-79
2023/03/23 14:49:37;;;;;;;2.33;1.10;;;;;;;8.28;64.97;98971.13;10405899;28;20064;-77
2023/03/23 14:54:43;;;;;;;2.20;1.20;;;;;;;8.23;65.26;98968.50;10362909;28;20552;-78
2023/03/23 14:59:47;;;;;;;3.72;1.17;;;;;;;8.13;65.38;98964.88;10386097;28;20046;-77
2023/03/23 15:04:56;;;;;;;2.15;0.98;;;;;;;8.09;65.87;98969.34;10403162;28;20056;-79
2023/03/23 15:10:05;;;;;;;1.65;1.13;;;;;;;7.98;66.55;98967.13;10393618;28;20528;-78
2023/03/23 15:15:30;;;;;;;1.08;0.70;;;;;;;7.94;66.74;98966.91;10393913;28;20050;-79
2023/03/23 15:20:42;;;;;;;1.17;0.88;;;;;;;7.96;67.77;98972.88;10382259;28;20043;-78
2023/03/23 15:25:50;;;;;;;1.73;1.27;;;;;;;7.96;67.39;98970.16;10426901;28;20132;-78
2023/03/23 15:30:56;;;;;;;4.90;1.15;;;;;;;7.87;67.45;98974.72;10390776;28;20153;-80
2023/03/23 15:35:58;;;;;;;2.13;1.13;;;;;;;7.79;67.13;98975.41;10398013;28;20144;-80
2023/03/23 15:41:17;;;;;;;1.67;0.80;;;;;;;7.69;67.15;98976.44;10379568;28;20563;-80
2023/03/23 15:46:22;;;;;;;1.52;0.90;;;;;;;7.54;67.67;98974.81;10399488;28;20045;-78
2023/03/23 15:51:30;;;;;;;2.03;1.05;;;;;;;7.46;68.28;98977.41;10383957;28;20648;-79
2023/03/23 15:56:32;;;;;;;2.20;0.87;;;;;;;7.35;69.25;98974.06;10408595;28;20501;-79
2023/03/23 16:01:36;;;;;;;1.33;0.95;;;;;;;7.25;69.69;98976.97;10405170;28;20509;-79
2023/03/23 16:06:38;;;;;;;1.52;0.95;;;;;;;7.17;69.57;98980.41;10401812;28;20045;-76
2023/03/23 16:11:41;;;;;;;0.90;0.75;;;;;;;7.11;70.54;98985.13;10369432;28;20034;-79
2023/03/23 16:16:47;;;;;;;2.05;0.90;;;;;;;7.03;70.76;98982.28;10392741;28;20065;-79
2023/03/23 16:21:49;;;;;;;1.65;0.75;;;;;;;6.93;71.37;98989.50;10386500;28;20038;-78
2023/03/23 16:27:38;;;;;;;1.27;0.45;;;;;;;6.82;72.13;98985.34;10392227;28;20053;-79
2023/03/23 16:33:05;;;;;;;0.85;0.55;;;;;;;6.74;72.85;98994.16;10395858;28;20042;-78
2023/03/23 16:38:15;;;;;;;0.88;0.75;;;;;;;6.69;73.14;98991.53;10411320;28;20524;-80
2023/03/23 16:43:21;;;;;;;0.82;0.68;;;;;;;6.65;73.29;98998.69;10452565;28;20057;-79
2023/03/23 16:48:48;;;;;;;3.47;1.10;;;;;;;6.62;74.06;99016.44;10408149;28;20041;-80
2023/03/23 16:54:00;;;;;;;1.88;1.25;;;;;;;6.56;73.61;99030.41;10426975;28;20034;-79
2023/03/23 16:59:02;;;;;;;4.03;2.17;;;;;;;6.32;74.01;99035.94;10434487;28;20049;-77
2023/03/23 17:04:04;;;;;;;3.25;2.22;;;;;;;6.10;74.26;99036.50;10449148;28;20054;-80
2023/03/23 17:09:07;;;;;;;1.98;1.33;;;;;;;5.71;73.70;99044.78;10433702;28;20417;-78
2023/03/23 17:14:09;;;;;;;2.22;1.50;;;;;;;5.30;74.64;99039.72;10442974;28;20489;-79
2023/03/23 17:19:14;;;;;;;2.72;1.50;;;;;;;5.10;75.22;99039.91;10430593;28;20048;-80
2023/03/23 17:24:18;;;;;;;2.42;1.90;;;;;;;5.01;75.50;99036.16;10442289;28;20611;-82
2023/03/23 17:29:23;;;;;;;5.75;2.67;;;;;;;5.00;76.04;99038.06;10444054;28;20041;-83
2023/03/23 17:34:25;;;;;;;4.35;2.15;;;;;;;5.18;76.31;99043.91;10446204;28;20045;-83
2023/03/23 17:39:28;;;;;;;3.55;2.03;;;;;;;5.29;75.38;99040.81;10437286;28;20734;-81
2023/03/23 17:44:30;;;;;;;8.65;2.30;;;;;;;5.36;75.40;99051.38;10413190;28;20038;-78
2023/03/23 17:49:32;;;;;;;8.27;3.60;;;;;;;5.22;75.59;99037.63;10444392;28;20575;-81
2023/03/23 17:54:35;;;;;;;3.45;1.83;;;;;;;5.04;76.29;99036.44;10441811;28;20129;-80
2023/03/23 17:59:40;;;;;;;3.08;2.00;;;;;;;5.29;76.34;99040.81;10436265;28;20046;-85
2023/03/23 18:04:44;;;;;;;4.38;2.05;;;;;;;5.59;75.81;99037.00;10452081;28;20049;-79
2023/03/23 18:09:46;;;;;;;3.58;2.17;;;;;;;5.57;74.26;99035.69;10446387;28;20053;-79
2023/03/23 18:14:48;;;;;;;2.70;1.65;;;;;;;5.44;73.80;99042.59;10438381;28;20037;-79
2023/03/23 18:19:51;;;;;;;3.83;1.88;;;;;;;5.62;73.60;99033.72;10440968;28;20615;-79
2023/03/23 18:24:54;;;;;;;4.43;1.60;;;;;;;5.70;73.30;99024.09;10444021;28;20062;-81
2023/03/23 18:29:57;;;;;;;4.45;1.95;;;;;;;5.60;73.29;99030.47;10450126;28;20045;-79
2023/03/23 18:35:00;;;;;;;6.10;2.13;;;;;;;5.53;73.59;99038.16;10435418;28;20048;-80
2023/03/23 18:40:04;;;;;;;4.18;1.80;;;;;;;5.52;72.69;99038.44;10436262;28;20133;-79
2023/03/23 18:45:07;;;;;;;5.07;2.58;;;;;;;5.29;72.69;99038.09;10440851;28;20045;-80
2023/03/23 18:50:10;;;;;;;7.47;2.28;;;;;;;5.07;73.09;99032.31;10423447;28;20163;-81
2023/03/23 18:55:13;;;;;;;3.55;1.92;;;;;;;4.97;74.02;99033.19;10434493;28;20040;-79
2023/03/23 19:00:16;;;;;;;4.65;1.85;;;;;;;4.88;73.75;99037.63;10437069;28;20412;-79
2023/03/23 19:10:47;;;;;;;;;;;;;;;4.91;75.18;99034.34;10459016;28;20051;-80
2023/03/23 19:15:49;;;;;;;4.13;1.70;;;;;;;4.84;75.61;99033.84;10440618;28;19921;-81
2023/03/23 19:20:52;;;;;;;5.97;2.42;;;;;;;4.68;76.11;99033.13;10437415;28;20469;-81
2023/03/23 19:26:02;;;;;;;5.55;2.10;;;;;;;4.61;76.46;99034.53;10441495;28;20048;-79
2023/03/23 19:31:04;;;;;;;4.65;2.22;;;;;;;4.71;76.18;99034.50;10423948;28;20045;-78
2023/03/23 19:36:07;;;;;;;5.20;2.40;;;;;;;4.67;75.27;99045.09;10449441;28;20052;-80
2023/03/23 19:41:09;;;;;;;6.43;1.85;;;;;;;4.66;74.22;99042.66;10445747;28;20037;-79
2023/03/23 19:46:13;;;;;;;5.20;1.55;;;;;;;4.61;74.10;99040.78;10438325;28;20042;-79
2023/03/23 19:51:17;;;;;;;3.67;1.50;;;;;;;4.56;74.03;99037.31;10453440;28;20065;-78
2023/03/23 19:56:45;;;;;;;3.83;1.50;;;;;;;4.60;73.20;99038.34;10449923;28;20045;-81
2023/03/23 20:01:48;;;;;;;3.22;1.30;;;;;;;4.55;72.62;99028.34;10440122;28;20408;-80
2023/03/23 20:06:51;;;;;;;3.00;1.30;;;;;;;4.57;72.71;99030.78;10440223;28;20378;-82
2023/03/23 20:11:56;;;;;;;8.38;1.58;;;;;;;4.51;72.62;99030.81;10457246;28;20037;-82
2023/03/23 20:16:58;;;;;;;3.80;1.20;;;;;;;4.31;73.16;99033.63;10451208;28;20037;-83
2023/03/23 20:22:01;;;;;;;7.00;1.98;;;;;;;4.30;73.07;99026.56;10444889;28;20515;-84
2023/03/23 20:27:04;;;;;;;7.07;1.48;;;;;;;4.21;72.95;99031.78;10431314;28;20308;-80
2023/03/23 20:32:09;;;;;;;3.97;1.30;;;;;;;4.22;72.89;99027.97;10444413;28;20041;-79
2023/03/23 20:37:15;;;;;;;4.30;1.63;;;;;;;4.18;73.05;99026.91;10442898;28;20041;-80
2023/03/23 20:42:17;;;;;;;8.00;1.50;;;;;;;4.09;72.73;99025.03;10445297;28;20672;-80
2023/03/23 20:47:19;;;;;;;4.50;1.70;;;;;;;3.91;74.15;99021.03;10443898;28;20048;-80
2023/03/23 20:52:22;;;;;;;5.57;1.65;;;;;;;3.82;73.98;99018.09;10445096;28;20046;-78
2023/03/23 20:57:24;;;;;;;4.38;1.10;;;;;;;3.77;73.83;99025.41;10441254;28;20049;-82
2023/03/23 21:02:30;;;;;;;3.85;1.27;;;;;;;3.70;74.57;99025.72;10432446;28;20056;-82
2023/03/23 21:07:32;;;;;;;3.38;1.23;;;;;;;3.52;75.68;99013.56;10429555;28;20041;-79
2023/03/23 21:12:34;;;;;;;4.78;1.42;;;;;;;3.37;75.73;99034.47;10449159;28;20042;-82
2023/03/23 21:17:36;;;;;;;8.48;1.70;;;;;;;3.39;76.44;99024.16;10450559;28;20053;-83
2023/03/23 21:22:39;;;;;;;6.93;1.70;;;;;;;3.39;76.55;99024.16;10417120;28;20040;-83
2023/03/23 21:27:41;;;;;;;7.60;1.45;;;;;;;3.40;76.53;99020.34;10412471;28;20043;-83
2023/03/23 21:32:43;;;;;;;6.13;1.65;;;;;;;3.38;77.06;99022.53;10423100;28;20048;-81
2023/03/23 21:37:47;;;;;;;5.07;1.55;;;;;;;3.29;77.75;99028.50;10426924;28;20068;-82
2023/03/23 21:42:50;;;;;;;4.22;1.63;;;;;;;3.24;78.04;99027.69;10423430;28;20033;-82
2023/03/23 21:47:55;;;;;;;3.35;1.60;;;;;;;3.20;78.31;99030.16;10447160;28;20037;-82
2023/03/23 21:52:58;;;;;;;7.72;2.70;;;;;;;3.25;78.26;99030.13;10441885;28;20060;-80
2023/03/23 21:58:00;;;;;;;7.97;2.35;;;;;;;3.19;78.53;99039.38;10442877;28;20052;-85
2023/03/23 22:03:03;;;;;;;9.27;2.75;;;;;;;3.34;78.31;99035.81;10428658;28;20041;-82
2023/03/23 22:08:08;;;;;;;7.88;2.10;;;;;;;3.46;78.15;99032.81;10424070;28;20037;-80
2023/03/23 22:13:10;;;;;;;7.35;2.25;;;;;;;3.38;78.82;99039.63;10442694;28;20041;-79
2023/03/23 22:18:13;;;;;;;7.88;2.17;;;;;;;3.54;78.48;99027.66;10443698;28;20642;-79
2023/03/23 22:23:16;;;;;;;8.07;2.40;;;;;;;3.81;77.82;99032.72;10417532;28;20045;-80
2023/03/23 22:28:18;;;;;;;10.90;3.05;;;;;;;3.75;77.47;99030.31;10440091;28;20068;-82
2023/03/23 22:33:25;;;;;;;8.93;2.38;;;;;;;3.88;77.86;99022.41;10426281;28;20036;-79
2023/03/23 22:38:27;;;;;;;6.68;2.53;;;;;;;3.88;77.28;99033.25;10452234;28;20526;-79
2023/03/23 22:43:30;;;;;;;4.25;1.70;;;;;;;3.59;77.71;99030.34;10445710;28;20056;-78
2023/03/23 22:48:32;;;;;;;6.45;1.52;;;;;;;3.74;77.76;99036.81;10425334;28;20045;-78
2023/03/23 22:53:34;;;;;;;6.68;1.90;;;;;;;3.84;77.80;99036.81;10411420;28;20056;-77
2023/03/23 22:58:38;;;;;;;5.38;1.60;;;;;;;3.95;77.24;99030.25;10443565;28;20053;-77
2023/03/23 23:03:40;;;;;;;6.88;1.88;;;;;;;3.94;77.39;99042.19;10442446;28;20568;-80
2023/03/23 23:08:43;;;;;;;7.45;1.73;;;;;;;3.88;77.31;99049.53;10434729;28;20042;-79
2023/03/23 23:13:46;;;;;;;6.72;1.73;;;;;;;4.10;77.46;99042.94;10436470;28;20528;-80
2023/03/23 23:18:49;;;;;;;4.30;1.55;;;;;;;4.04;77.35;99044.88;10429841;28;20409;-79
2023/03/23 23:23:51;;;;;;;6.60;1.60;;;;;;;3.97;77.40;99049.78;10411571;28;20034;-79
2023/03/23 23:28:54;;;;;;;12.77;4.38;;;;;;;3.93;77.50;99046.81;10455136;28;20036;-78
2023/03/23 23:33:59;;;;;;;7.30;1.70;;;;;;;3.86;77.85;99051.72;10440501;28;20048;-78
2023/03/23 23:39:04;;;;;;;7.93;1.88;;;;;;;3.84;77.69;99053.91;10440009;28;20049;-77
2023/03/23 23:44:07;;;;;;;5.55;2.17;;;;;;;3.87;77.61;99055.25;10458164;28;20048;-80
2023/03/23 23:49:09;;;;;;;7.50;2.40;;;;;;;3.96;77.36;99060.91;10449843;28;20060;-80
2023/03/23 23:54:13;;;;;;;5.65;1.63;;;;;;;3.70;78.26;99052.84;10445704;28;20041;-78
2023/03/23 23:59:16;;;;;;;6.22;1.77;;;;;;;3.99;77.64;99054.91;10445207;28;20041;-78
